No particular awareness of the weather is required.    There are no Weather-warnings


Meteo18 Weather Cam more information Meteo18 Weather Cam


Thunder radar more information blitzortung!


Rain radar more information rain snow radar


Visit our other weather sites:

Template documentation
and downloads

And another site



Weather Underground History page Text

Daily Summary for August 1, 2017 Units:  English    Metric   Both
« Previous Day
Next Day »
Daily Weekly Monthly Yearly Custom
  High: Low: Average:
Temperature: TemperatureC °F 15.9 °F 19.8 °F
Dew Point: DewpointC °F 14.8 °F 16.9 °F
Humidity: Humidity % 62 % 84 %
Wind Speed: WindSpeedKMH mph 0.0 mph 4 mph
Wind Gust: WindSpeedGustKMH mph - -
Wind:- - SSW
Pressure: PressurehPa in 1011.4 in -
Precipitation: 23.4 in    
Historical Graphs
 
 
Tabular Data for August 1, 2017
Time Temperature Dew Point Pressure Wind Wind Speed Wind Gust Humidity Rainfall Rate (Hourly)
TemperatureC °F DewpointC °F PressurehPa in Calm     Humidity % HourlyPrecipMM in
00:02 16.3 °F 14.8 °F 1014.1 in NNW 4.8 mph 22.5 mph 91 % 8.6 in
00:12 16.7 °F 15.1 °F 1013.1 in North 4.8 mph 19.3 mph 90 % 6.6 in
00:17 16.7 °F 15.2 °F 1014.4 in NW 1.6 mph 19.3 mph 91 % 4.6 in
00:22 16.6 °F 15.0 °F 1014.4 in North 3.2 mph 19.3 mph 90 % 4.6 in
00:32 16.7 °F 15.2 °F 1014.8 in ENE 4.8 mph 14.5 mph 91 % 4.8 in
00:37 16.8 °F 15.3 °F 1015.1 in Calm   9.7 mph 91 % 4.6 in
00:47 16.8 °F 15.3 °F 1014.4 in North 11.3 mph 12.9 mph 91 % 2.5 in
00:52 16.7 °F 15.4 °F 1014.4 in NNW 4.8 mph 12.9 mph 92 % 2.5 in
01:02 16.7 °F 15.4 °F 1015.5 in Calm   17.7 mph 92 % 2.3 in
01:12 16.6 °F 15.5 °F 1015.5 in NW 4.8 mph 12.9 mph 93 % 2.5 in
01:17 16.6 °F 15.5 °F 1015.1 in NNW 9.7 mph 9.7 mph 93 % 2.3 in
01:22 16.6 °F 15.5 °F 1014.1 in NNW 9.7 mph 9.7 mph 93 % 2.3 in
01:32 16.5 °F 15.4 °F 1013.4 in NNE 6.4 mph 14.5 mph 93 % 2.3 in
01:42 16.6 °F 15.5 °F 1014.4 in NW 6.4 mph 25.7 mph 93 % 2.8 in
01:47 16.6 °F 15.5 °F 1014.8 in NW 3.2 mph 19.3 mph 93 % 1.5 in
01:52 16.6 °F 15.3 °F 1015.1 in Calm   19.3 mph 92 % 1.5 in
01:57 16.6 °F 15.3 °F 1014.8 in NE 4.8 mph 14.5 mph 92 % 1.0 in
02:02 16.6 °F 15.3 °F 1014.4 in North 1.6 mph 14.5 mph 92 % 1.0 in
02:07 16.6 °F 15.5 °F 1014.4 in NNW 4.8 mph 6.4 mph 93 % 0.8 in
02:12 16.6 °F 15.5 °F 1014.4 in NW 3.2 mph 6.4 mph 93 % 0.8 in
02:17 16.6 °F 15.5 °F 1014.4 in NNW 4.8 mph 9.7 mph 93 % 0.8 in
02:22 16.6 °F 15.5 °F 1014.4 in Calm   9.7 mph 93 % 0.8 in
02:32 16.7 °F 15.6 °F 1014.4 in NE 3.2 mph 9.7 mph 93 % 0.3 in
02:42 16.6 °F 15.5 °F 1013.8 in ENE 4.8 mph 9.7 mph 93 % 0.0 in
02:52 16.6 °F 15.5 °F 1014.1 in NNW 3.2 mph 6.4 mph 93 % 0.5 in
02:57 16.6 °F 15.5 °F 1014.4 in Calm   9.7 mph 93 % 0.5 in
03:02 16.6 °F 15.6 °F 1014.8 in Calm   9.7 mph 94 % 0.5 in
03:07 16.6 °F 15.6 °F 1014.4 in Calm   6.4 mph 94 % 0.5 in
03:12 16.6 °F 15.6 °F 1014.4 in Calm   6.4 mph 94 % 0.5 in
03:17 16.6 °F 15.6 °F 1014.1 in Calm   6.4 mph 94 % 0.5 in
03:22 16.6 °F 15.6 °F 1014.1 in NNE 1.6 mph 4.8 mph 94 % 0.5 in
03:32 16.6 °F 15.6 °F 1013.8 in NNW 6.4 mph 8.0 mph 94 % 0.5 in
03:37 16.6 °F 15.6 °F 1013.1 in WSW 3.2 mph 16.1 mph 94 % 0.5 in
03:42 16.6 °F 15.6 °F 1014.4 in Calm   20.9 mph 94 % 0.5 in
03:47 16.6 °F 15.6 °F 1013.4 in NNW 8.0 mph 20.9 mph 94 % 0.5 in
03:52 16.7 °F 15.7 °F 1013.8 in Calm   11.3 mph 94 % 1.0 in
03:57 16.7 °F 15.7 °F 1014.8 in WNW 3.2 mph 11.3 mph 94 % 1.0 in
04:02 16.7 °F 15.7 °F 1014.4 in Calm   9.7 mph 94 % 1.3 in
04:12 16.6 °F 15.6 °F 1014.8 in Calm   4.8 mph 94 % 1.3 in
04:17 16.6 °F 15.6 °F 1014.4 in Calm   4.8 mph 94 % 1.3 in
04:22 16.6 °F 15.6 °F 1014.4 in Calm   4.8 mph 94 % 1.0 in
04:27 16.6 °F 15.8 °F 1014.1 in NNW 1.6 mph 4.8 mph 95 % 1.0 in
04:32 16.6 °F 15.8 °F 1014.1 in Calm   4.8 mph 95 % 1.3 in
04:42 16.5 °F 15.7 °F 1014.1 in Calm   9.7 mph 95 % 1.0 in
04:52 16.6 °F 15.8 °F 1013.8 in NNW 1.6 mph 9.7 mph 95 % 1.0 in
04:57 16.6 °F 15.8 °F 1013.4 in North 1.6 mph 6.4 mph 95 % 0.5 in
05:02 16.6 °F 15.8 °F 1013.4 in North 6.4 mph 6.4 mph 95 % 0.5 in
05:12 16.6 °F 15.8 °F 1013.8 in North 4.8 mph 9.7 mph 95 % 0.5 in
05:17 16.6 °F 15.8 °F 1013.4 in NNW 1.6 mph 9.7 mph 95 % 0.5 in
05:22 16.6 °F 16.0 °F 1015.1 in SW 8.0 mph 9.7 mph 96 % 0.5 in
05:27 16.6 °F 15.8 °F 1016.8 in West 22.5 mph 22.5 mph 95 % 0.5 in
05:37 16.7 °F 16.1 °F 1016.5 in South 1.6 mph 49.9 mph 96 % 11.4 in
05:42 16.7 °F 16.1 °F 1016.8 in SW 8.0 mph 49.9 mph 96 % 11.4 in
05:47 16.4 °F 15.6 °F 1016.8 in SSW 6.4 mph 16.1 mph 95 % 13.0 in
05:52 16.4 °F 15.8 °F 1017.5 in SSW 11.3 mph 16.1 mph 96 % 13.0 in
06:02 16.2 °F 15.6 °F 1017.8 in SE 4.8 mph 16.1 mph 96 % 13.7 in
06:07 16.2 °F 15.6 °F 1016.5 in ENE 1.6 mph 16.1 mph 96 % 14.5 in
06:12 16.2 °F 15.6 °F 1016.1 in NE 3.2 mph 16.1 mph 96 % 14.5 in
06:17 16.2 °F 15.6 °F 1014.8 in NE 17.7 mph 17.7 mph 96 % 14.7 in
06:22 16.2 °F 15.6 °F 1013.8 in NE 17.7 mph 17.7 mph 96 % 15.2 in
06:32 16.1 °F 15.5 °F 1011.7 in North 14.5 mph 30.6 mph 96 % 12.7 in
06:37 16.1 °F 15.5 °F 1012.1 in NNE 14.5 mph 30.6 mph 96 % 12.7 in
06:42 16.1 °F 15.5 °F 1012.1 in NE 3.2 mph 37.0 mph 96 % 4.1 in
06:47 16.1 °F 15.5 °F 1012.1 in NNE 9.7 mph 37.0 mph 96 % 4.1 in
06:52 16.0 °F 15.4 °F 1012.1 in WSW 1.6 mph 24.1 mph 96 % 2.5 in
06:57 16.0 °F 15.4 °F 1012.8 in North 8.0 mph 14.5 mph 96 % 2.3 in
07:02 16.0 °F 15.4 °F 1011.4 in North 4.8 mph 14.5 mph 96 % 2.3 in
07:07 16.0 °F 15.4 °F 1013.1 in South 6.4 mph 17.7 mph 96 % 1.5 in
07:12 16.1 °F 15.5 °F 1012.8 in SW 3.2 mph 17.7 mph 96 % 1.5 in
07:17 16.0 °F 15.4 °F 1013.1 in SSW 4.8 mph 16.1 mph 96 % 1.0 in
07:22 15.9 °F 15.3 °F 1013.8 in South 6.4 mph 16.1 mph 96 % 1.0 in
07:27 15.9 °F 15.3 °F 1014.1 in SSW 11.3 mph 12.9 mph 96 % 0.5 in
07:37 16.1 °F 15.6 °F 1015.5 in West 11.3 mph 19.3 mph 97 % 0.3 in
07:42 16.1 °F 15.5 °F 1014.8 in WSW 8.0 mph 19.3 mph 96 % 0.3 in
07:47 16.2 °F 15.6 °F 1014.8 in West 3.2 mph 22.5 mph 96 % 0.3 in
07:52 16.2 °F 15.6 °F 1014.4 in WNW 6.4 mph 22.5 mph 96 % 0.3 in
07:57 16.3 °F 15.7 °F 1014.4 in West 4.8 mph 12.9 mph 96 % 0.3 in
08:02 16.4 °F 15.8 °F 1014.8 in SW 6.4 mph 12.9 mph 96 % 0.3 in
08:07 16.6 °F 16.0 °F 1015.1 in SW 14.5 mph 14.5 mph 96 % 0.0 in
08:12 16.7 °F 16.1 °F 1015.1 in West 9.7 mph 12.9 mph 96 % 0.0 in
08:17 16.7 °F 16.1 °F 1015.5 in WSW 14.5 mph 20.9 mph 96 % 0.0 in
08:22 16.7 °F 15.9 °F 1015.8 in SW 14.5 mph 20.9 mph 95 % 0.0 in
08:27 16.8 °F 16.0 °F 1015.8 in WSW 11.3 mph 24.1 mph 95 % 0.0 in
08:32 16.8 °F 16.0 °F 1016.1 in West 4.8 mph 24.1 mph 95 % 0.0 in
08:37 16.8 °F 16.0 °F 1015.8 in West 3.2 mph 19.3 mph 95 % 0.0 in
08:42 16.8 °F 16.0 °F 1016.5 in West 17.7 mph 19.3 mph 95 % 0.0 in
08:47 16.9 °F 16.1 °F 1016.5 in WSW 6.4 mph 19.3 mph 95 % 0.0 in
08:52 16.9 °F 16.1 °F 1016.8 in WSW 20.9 mph 20.9 mph 95 % 0.0 in
09:02 16.9 °F 16.1 °F 1017.2 in West 4.8 mph 22.5 mph 95 % 0.0 in
09:07 16.9 °F 16.1 °F 1016.5 in Calm   22.5 mph 95 % 0.3 in
09:12 16.9 °F 16.1 °F 1016.5 in Calm   22.5 mph 95 % 0.3 in
09:17 16.9 °F 16.1 °F 1016.8 in ESE 1.6 mph 19.3 mph 95 % 0.3 in
09:22 16.9 °F 16.1 °F 1016.8 in Calm   11.3 mph 95 % 0.8 in
09:32 16.8 °F 16.0 °F 1015.5 in NE 8.0 mph 9.7 mph 95 % 1.3 in
09:37 16.8 °F 16.0 °F 1014.8 in NE 12.9 mph 16.1 mph 95 % 1.5 in
09:42 16.9 °F 16.3 °F 1016.1 in East 3.2 mph 16.1 mph 96 % 1.5 in
09:47 17.0 °F 16.4 °F 1016.8 in Calm   19.3 mph 96 % 1.5 in
09:52 17.1 °F 16.5 °F 1017.2 in SW 3.2 mph 19.3 mph 96 % 1.5 in
09:57 17.0 °F 16.4 °F 1016.8 in WNW 1.6 mph 11.3 mph 96 % 1.5 in
10:02 17.0 °F 16.4 °F 1015.8 in ENE 3.2 mph 11.3 mph 96 % 1.5 in
10:07 16.9 °F 16.3 °F 1015.1 in NE 14.5 mph 14.5 mph 96 % 1.5 in
10:12 16.8 °F 16.2 °F 1014.1 in ESE 6.4 mph 8.0 mph 96 % 1.5 in
10:17 16.9 °F 16.3 °F 1015.8 in SE 1.6 mph 20.9 mph 96 % 1.0 in
10:22 17.1 °F 16.5 °F 1015.8 in Calm   20.9 mph 96 % 1.0 in
10:27 17.2 °F 16.6 °F 1015.8 in Calm   8.0 mph 96 % 0.5 in
10:32 17.4 °F 16.8 °F 1016.5 in SW 3.2 mph 8.0 mph 96 % 0.5 in
10:37 17.3 °F 16.5 °F 1016.5 in SW 4.8 mph 4.8 mph 95 % 0.5 in
10:42 17.4 °F 16.8 °F 1016.1 in West 3.2 mph 3.2 mph 96 % 0.5 in
10:47 17.4 °F 16.6 °F 1016.1 in WNW 4.8 mph 6.4 mph 95 % 0.5 in
10:57 17.7 °F 17.1 °F 1016.5 in Calm   9.7 mph 96 % 0.3 in
11:02 17.6 °F 16.6 °F 1015.8 in Calm   9.7 mph 94 % 0.3 in
11:07 17.7 °F 16.9 °F 1015.8 in North 3.2 mph 4.8 mph 95 % 0.0 in
11:12 17.9 °F 16.9 °F 1016.1 in WNW 8.0 mph 8.0 mph 94 % 0.0 in
11:17 17.9 °F 16.9 °F 1017.2 in SW 8.0 mph 8.0 mph 94 % 0.0 in
11:22 18.0 °F 17.0 °F 1016.8 in SW 4.8 mph 8.0 mph 94 % 0.0 in
11:27 18.2 °F 17.2 °F 1016.8 in West 3.2 mph 9.7 mph 94 % 0.0 in
11:32 18.5 °F 17.3 °F 1016.8 in WSW 3.2 mph 9.7 mph 93 % 0.0 in
11:37 18.7 °F 17.2 °F 1016.8 in Calm   6.4 mph 91 % 0.0 in
11:42 18.9 °F 17.0 °F 1016.8 in SW 4.8 mph 6.4 mph 89 % 0.0 in
11:47 19.1 °F 17.4 °F 1016.5 in West 4.8 mph 8.0 mph 90 % 0.0 in
11:52 19.1 °F 17.1 °F 1016.5 in West 3.2 mph 8.0 mph 88 % 0.0 in
11:57 19.2 °F 17.2 °F 1016.5 in WSW 3.2 mph 6.4 mph 88 % 0.0 in
12:02 19.7 °F 17.8 °F 1016.5 in South 1.6 mph 6.4 mph 89 % 0.0 in
12:07 19.9 °F 17.5 °F 1016.5 in West 3.2 mph 6.4 mph 86 % 0.0 in
12:17 20.2 °F 17.6 °F 1016.5 in South 4.8 mph 8.0 mph 85 % 0.0 in
12:22 20.2 °F 17.4 °F 1016.5 in Calm   8.0 mph 84 % 0.0 in
12:27 20.2 °F 17.2 °F 1016.8 in WSW 8.0 mph 11.3 mph 83 % 0.0 in
12:32 20.3 °F 17.3 °F 1016.8 in West 4.8 mph 11.3 mph 83 % 0.0 in
12:37 20.6 °F 17.6 °F 1016.8 in SSE 1.6 mph 11.3 mph 83 % 0.0 in
12:42 21.1 °F 18.3 °F 1016.5 in Calm   11.3 mph 84 % 0.0 in
12:47 21.2 °F 18.0 °F 1016.8 in SW 1.6 mph 9.7 mph 82 % 0.0 in
12:52 21.5 °F 18.5 °F 1016.8 in SW 6.4 mph 6.4 mph 83 % 0.0 in
12:57 21.6 °F 18.0 °F 1016.8 in SSW 3.2 mph 9.7 mph 80 % 0.0 in
13:02 21.7 °F 18.1 °F 1016.8 in West 4.8 mph 11.3 mph 80 % 0.0 in
13:12 22.3 °F 18.9 °F 1016.8 in WSW 8.0 mph 11.3 mph 81 % 0.0 in
13:17 22.6 °F 18.8 °F 1016.8 in WNW 6.4 mph 9.7 mph 79 % 0.0 in
13:22 22.7 °F 18.7 °F 1016.8 in West 1.6 mph 11.3 mph 78 % 0.0 in
13:27 22.8 °F 18.1 °F 1016.8 in Calm   11.3 mph 75 % 0.0 in
13:32 22.9 °F 18.2 °F 1016.8 in SSE 3.2 mph 11.3 mph 75 % 0.0 in
13:37 23.2 °F 18.1 °F 1016.8 in SW 6.4 mph 9.7 mph 73 % 0.0 in
13:42 23.1 °F 18.4 °F 1016.8 in WSW 6.4 mph 11.3 mph 75 % 0.0 in
13:47 23.2 °F 18.1 °F 1016.8 in South 3.2 mph 11.3 mph 73 % 0.0 in
13:52 23.1 °F 18.6 °F 1016.8 in SSW 3.2 mph 11.3 mph 76 % 0.0 in
13:57 23.1 °F 18.0 °F 1016.8 in SSW 8.0 mph 11.3 mph 73 % 0.0 in
14:02 23.2 °F 18.3 °F 1016.8 in SW 6.4 mph 11.3 mph 74 % 0.0 in
14:12 23.2 °F 18.1 °F 1017.2 in West 4.8 mph 11.3 mph 73 % 0.0 in
14:17 23.4 °F 18.5 °F 1017.2 in SW 6.4 mph 11.3 mph 74 % 0.0 in
14:22 23.6 °F 18.5 °F 1017.2 in SSW 11.3 mph 11.3 mph 73 % 0.0 in
14:32 23.6 °F 18.0 °F 1017.2 in SE 3.2 mph 11.3 mph 71 % 0.0 in
14:37 23.8 °F 18.2 °F 1017.2 in SW 6.4 mph 11.3 mph 71 % 0.0 in
14:42 23.9 °F 18.5 °F 1017.2 in South 6.4 mph 9.7 mph 72 % 0.0 in
14:47 24.1 °F 18.5 °F 1017.2 in SSW 9.7 mph 9.7 mph 71 % 0.0 in
14:52 23.8 °F 18.0 °F 1017.2 in SSW 1.6 mph 14.5 mph 70 % 0.0 in
14:57 23.7 °F 18.1 °F 1017.2 in SW 4.8 mph 14.5 mph 71 % 0.0 in
15:02 23.7 °F 18.4 °F 1017.2 in South 1.6 mph 14.5 mph 72 % 0.0 in
15:07 24.0 °F 18.6 °F 1017.2 in South 3.2 mph 9.7 mph 72 % 0.0 in
15:12 23.9 °F 18.1 °F 1017.2 in SSW 8.0 mph 8.0 mph 70 % 0.0 in
15:17 23.9 °F 18.1 °F 1016.8 in Calm   8.0 mph 70 % 0.0 in
15:22 24.2 °F 18.2 °F 1016.8 in SSW 4.8 mph 8.0 mph 69 % 0.0 in
15:27 24.4 °F 18.3 °F 1017.2 in South 4.8 mph 8.0 mph 69 % 0.0 in
15:32 24.6 °F 18.3 °F 1017.2 in SW 3.2 mph 8.0 mph 68 % 0.0 in
15:37 24.6 °F 18.3 °F 1017.2 in South 3.2 mph 9.7 mph 68 % 0.0 in
15:42 24.4 °F 18.6 °F 1017.2 in WNW 3.2 mph 12.9 mph 70 % 0.0 in
15:47 24.3 °F 18.7 °F 1017.2 in WSW 8.0 mph 12.9 mph 71 % 0.0 in
15:52 24.3 °F 18.5 °F 1017.2 in SW 17.7 mph 17.7 mph 70 % 0.0 in
15:57 24.3 °F 18.5 °F 1017.2 in WSW 6.4 mph 17.7 mph 70 % 0.0 in
16:02 24.3 °F 18.5 °F 1017.2 in SW 9.7 mph 17.7 mph 70 % 0.0 in
16:12 24.4 °F 18.6 °F 1016.8 in WNW 4.8 mph 12.9 mph 70 % 0.0 in
16:17 24.5 °F 18.4 °F 1016.8 in WNW 8.0 mph 11.3 mph 69 % 0.0 in
16:22 24.5 °F 18.4 °F 1016.8 in WNW 8.0 mph 11.3 mph 69 % 0.0 in
16:32 24.6 °F 18.3 °F 1016.8 in West 8.0 mph 14.5 mph 68 % 0.0 in
16:37 24.8 °F 18.5 °F 1016.8 in WSW 4.8 mph 16.1 mph 68 % 0.0 in
16:42 24.8 °F 18.5 °F 1017.2 in WNW 6.4 mph 16.1 mph 68 % 0.0 in
16:47 24.9 °F 18.6 °F 1017.2 in West 1.6 mph 16.1 mph 68 % 0.0 in
16:52 24.8 °F 18.5 °F 1016.8 in Calm   12.9 mph 68 % 0.0 in
16:57 25.2 °F 18.9 °F 1016.8 in WNW 8.0 mph 12.9 mph 68 % 0.0 in
17:02 25.2 °F 18.6 °F 1016.8 in SSW 6.4 mph 11.3 mph 67 % 0.0 in
17:12 24.9 °F 18.3 °F 1017.2 in West 8.0 mph 11.3 mph 67 % 0.0 in
17:22 24.5 °F 18.4 °F 1017.2 in WNW 3.2 mph 12.9 mph 69 % 0.0 in
17:32 24.4 °F 18.3 °F 1016.8 in West 6.4 mph 8.0 mph 69 % 0.0 in
17:37 24.5 °F 18.4 °F 1017.2 in WNW 3.2 mph 8.0 mph 69 % 0.0 in
17:42 24.5 °F 18.7 °F 1016.8 in WSW 1.6 mph 8.0 mph 70 % 0.0 in
17:52 24.7 °F 18.9 °F 1017.2 in SSW 3.2 mph 4.8 mph 70 % 0.0 in
17:57 24.6 °F 18.5 °F 1016.8 in WNW 1.6 mph 4.8 mph 69 % 0.0 in
18:02 24.6 °F 18.8 °F 1016.8 in Calm   4.8 mph 70 % 0.0 in
18:12 25.2 °F 19.1 °F 1016.8 in NE 3.2 mph 3.2 mph 69 % 0.0 in
18:17 25.3 °F 19.0 °F 1016.8 in WSW 1.6 mph 3.2 mph 68 % 0.0 in
18:22 25.7 °F 19.1 °F 1017.2 in WSW 1.6 mph 4.8 mph 67 % 0.0 in
18:27 25.7 °F 19.1 °F 1017.2 in Calm   3.2 mph 67 % 0.0 in
18:32 25.4 °F 18.8 °F 1017.2 in NE 6.4 mph 6.4 mph 67 % 0.0 in
18:37 24.9 °F 18.8 °F 1017.2 in NNE 1.6 mph 8.0 mph 69 % 0.0 in
18:42 24.8 °F 18.7 °F 1017.2 in NE 3.2 mph 8.0 mph 69 % 0.0 in
18:47 24.8 °F 18.7 °F 1017.2 in Calm   8.0 mph 69 % 0.0 in
18:52 25.1 °F 19.0 °F 1017.2 in Calm   4.8 mph 69 % 0.0 in
18:57 25.5 °F 18.9 °F 1017.2 in NNE 3.2 mph 4.8 mph 67 % 0.0 in
19:02 25.3 °F 18.7 °F 1017.2 in North 3.2 mph 6.4 mph 67 % 0.0 in
19:07 25.1 °F 18.5 °F 1017.2 in WNW 1.6 mph 6.4 mph 67 % 0.0 in
19:12 24.8 °F 18.5 °F 1017.5 in West 3.2 mph 9.7 mph 68 % 0.0 in
19:22 24.6 °F 18.3 °F 1017.5 in WNW 1.6 mph 9.7 mph 68 % 0.0 in
19:32 24.6 °F 17.6 °F 1017.5 in WNW 4.8 mph 8.0 mph 65 % 0.0 in
19:42 24.6 °F 18.1 °F 1017.5 in NNE 1.6 mph 8.0 mph 67 % 0.0 in
19:47 24.7 °F 17.9 °F 1017.5 in WNW 1.6 mph 8.0 mph 66 % 0.0 in
19:52 24.9 °F 17.6 °F 1017.5 in Calm   8.0 mph 64 % 0.0 in
19:57 25.1 °F 17.6 °F 1017.5 in Calm   8.0 mph 63 % 0.0 in
20:02 25.2 °F 17.7 °F 1017.5 in NW 1.6 mph 6.4 mph 63 % 0.0 in
20:07 25.2 °F 17.7 °F 1017.5 in North 1.6 mph 4.8 mph 63 % 0.0 in
20:17 24.9 °F 17.4 °F 1017.5 in NNE 1.6 mph 6.4 mph 63 % 0.0 in
20:22 25.1 °F 17.8 °F 1017.5 in Calm   6.4 mph 64 % 0.0 in
20:27 25.1 °F 17.6 °F 1017.8 in Calm   4.8 mph 63 % 0.0 in
20:32 25.1 °F 17.3 °F 1017.5 in NW 1.6 mph 3.2 mph 62 % 0.0 in
20:37 25.1 °F 17.6 °F 1017.8 in Calm   3.2 mph 63 % 0.0 in
20:47 24.9 °F 17.6 °F 1017.8 in Calm   3.2 mph 64 % 0.0 in
20:52 24.7 °F 17.7 °F 1017.8 in Calm     65 % 0.0 in
21:02 23.8 °F 18.0 °F 1017.8 in Calm   1.6 mph 70 % 0.0 in
21:12 22.7 °F 18.0 °F 1018.2 in NW 1.6 mph 1.6 mph 75 % 0.0 in
21:17 22.3 °F 17.0 °F 1018.2 in Calm   1.6 mph 72 % 0.0 in
21:22 22.3 °F 17.2 °F 1018.2 in Calm   1.6 mph 73 % 0.0 in
21:27 22.0 °F 17.2 °F 1018.2 in NNW 3.2 mph 3.2 mph 74 % 0.0 in
21:32 21.9 °F 17.5 °F 1018.2 in NNW 1.6 mph 3.2 mph 76 % 0.0 in
21:37 21.8 °F 17.6 °F 1018.2 in Calm   3.2 mph 77 % 0.0 in
21:42 21.2 °F 17.0 °F 1018.5 in Calm   3.2 mph 77 % 0.0 in
21:47 20.9 °F 17.3 °F 1018.5 in Calm   1.6 mph 80 % 0.0 in
21:52 20.5 °F 16.9 °F 1018.5 in Calm     80 % 0.0 in
21:57 20.6 °F 17.0 °F 1018.5 in Calm     80 % 0.0 in
22:07 20.5 °F 17.1 °F 1018.8 in Calm     81 % 0.0 in
22:12 20.2 °F 17.2 °F 1018.8 in Calm     83 % 0.0 in
22:17 19.9 °F 17.1 °F 1018.8 in Calm     84 % 0.0 in
22:22 19.7 °F 16.9 °F 1018.8 in Calm     84 % 0.0 in
22:32 19.6 °F 17.0 °F 1018.8 in Calm     85 % 0.0 in
22:37 19.6 °F 17.0 °F 1018.8 in Calm     85 % 0.0 in
22:42 19.6 °F 17.2 °F 1018.8 in Calm     86 % 0.0 in
22:47 19.4 °F 17.0 °F 1018.8 in Calm     86 % 0.0 in
22:52 19.2 °F 16.8 °F 1019.2 in Calm     86 % 0.0 in
22:57 19.0 °F 16.8 °F 1019.2 in Calm     87 % 0.0 in
23:02 18.9 °F 16.9 °F 1018.8 in Calm     88 % 0.0 in
23:12 18.6 °F 16.8 °F 1018.8 in Calm     89 % 0.0 in
23:17 18.5 °F 16.7 °F 1019.2 in Calm     89 % 0.0 in
23:22 18.3 °F 16.6 °F 1019.2 in Calm     90 % 0.0 in
23:32 18.3 °F 16.6 °F 1019.2 in Calm     90 % 0.0 in
23:37 18.4 °F 16.7 °F 1019.2 in Calm     90 % 0.0 in
23:42 18.5 °F 16.8 °F 1019.2 in Calm     90 % 0.0 in
23:47 18.3 °F 16.5 °F 1019.2 in Calm     89 % 0.0 in
23:52 18.1 °F 16.4 °F 1019.5 in WNW 3.2 mph   90 % 0.0 in
Meteo18
Compliments of Weather Underground - 4 mb

Script developed by  Jim McMurry - jmcmurry@mwt.net Adapted for the template by  Wim van der Kuil - Leuven-Template.eu

You find our weather info also at:

European Weather Network

Weather Underground

Equipment we use:

Weather-station
Davis Vue

Weather-program
Meteobridge

Weather-server
Raspberry PI 2 B+

Provider
1 and 1

Davis Vue

Meteobridge

Raspberry PI 2 B+

1 and 1